Time;durP1;ratioP1;P1;durP2;ratioP2;P2;SDS_P1;SDS_P2;PMS_P1;PMS_P2;Temp;Humidity;BMP_temperature;BMP_pressure;BME280_temperature;BME280_humidity;BME280_pressure;Samples;Min_cycle;Max_cycle;Signal;HPM_P1;HPM_P2
2021/11/18 00:04:08;;;;;;;12.53;6.10;;;7.30;99.90;;;;;;5074176;28;20237;-52
2021/11/18 00:06:35;;;;;;;12.07;5.70;;;7.30;99.90;;;;;;5072951;28;20203;-53
2021/11/18 00:09:03;;;;;;;16.67;6.57;;;7.20;99.90;;;;;;5072357;28;20350;-54
2021/11/18 00:11:31;;;;;;;12.60;6.23;;;7.20;99.90;;;;;;5067100;28;20221;-53
2021/11/18 00:13:57;;;;;;;12.67;5.90;;;7.30;99.90;;;;;;5075374;28;20700;-52
2021/11/18 00:16:24;;;;;;;12.27;5.63;;;7.30;99.90;;;;;;5078017;28;20209;-51
2021/11/18 00:18:52;;;;;;;13.93;6.30;;;7.30;99.90;;;;;;5079443;28;20276;-53
2021/11/18 00:21:29;;;;;;;15.27;5.80;;;7.40;99.90;;;;;;5077018;28;20242;-53
2021/11/18 00:23:57;;;;;;;16.00;6.20;;;7.50;99.90;;;;;;5077555;28;20248;-51
2021/11/18 00:26:26;;;;;;;13.00;5.47;;;7.50;99.90;;;;;;5074685;28;20315;-52
2021/11/18 00:28:53;;;;;;;12.30;5.40;;;7.60;99.90;;;;;;5075111;28;20217;-52
2021/11/18 00:31:27;;;;;;;13.10;6.13;;;7.60;99.90;;;;;;5073195;28;21265;-54
2021/11/18 00:33:55;;;;;;;16.17;6.00;;;7.50;99.90;;;;;;5071082;28;20205;-51
2021/11/18 00:36:23;;;;;;;14.30;5.93;;;7.50;99.90;;;;;;5078892;28;20546;-54
2021/11/18 00:38:50;;;;;;;16.27;5.47;;;7.50;99.90;;;;;;5077070;28;20204;-52
2021/11/18 00:41:17;;;;;;;17.57;6.20;;;7.30;99.90;;;;;;5075548;28;20241;-52
2021/11/18 00:43:45;;;;;;;14.50;6.10;;;7.30;99.90;;;;;;5078031;28;20190;-53
2021/11/18 00:46:13;;;;;;;15.17;6.43;;;7.20;99.90;;;;;;5075833;28;20242;-51
2021/11/18 00:48:40;;;;;;;15.33;5.93;;;7.20;99.90;;;;;;5077942;28;20224;-52
2021/11/18 00:51:10;;;;;;;12.20;6.03;;;7.20;99.90;;;;;;5077037;28;20262;-54
2021/11/18 00:53:55;;;;;;;14.77;5.67;;;7.20;99.90;;;;;;5076867;28;20238;-52
2021/11/18 00:56:23;;;;;;;18.07;6.23;;;7.30;99.90;;;;;;5073258;28;20191;-51
2021/11/18 00:58:52;;;;;;;19.60;6.20;;;7.30;99.90;;;;;;5059957;28;20230;-52
2021/11/18 01:01:23;;;;;;;11.73;6.10;;;7.20;99.90;;;;;;5075676;28;20329;-51
2021/11/18 01:03:50;;;;;;;14.93;5.83;;;7.30;99.90;;;;;;5078511;28;20205;-52
2021/11/18 01:06:18;;;;;;;14.27;5.87;;;7.20;99.90;;;;;;5077960;28;20587;-54
2021/11/18 01:08:45;;;;;;;19.67;6.33;;;7.10;99.90;;;;;;5076051;28;20244;-53
2021/11/18 01:11:24;;;;;;;17.33;6.30;;;7.10;99.90;;;;;;5076650;28;20205;-52
2021/11/18 01:13:52;;;;;;;19.63;6.73;;;7.10;99.90;;;;;;5076588;28;20224;-55
2021/11/18 01:16:25;;;;;;;17.97;6.97;;;7.00;99.90;;;;;;5075383;28;20323;-54
2021/11/18 01:18:52;;;;;;;12.80;6.50;;;7.00;99.90;;;;;;5078210;28;20684;-52
2021/11/18 01:21:19;;;;;;;15.50;6.93;;;7.00;99.90;;;;;;5057293;28;20243;-53
2021/11/18 01:23:47;;;;;;;14.67;6.27;;;6.90;99.90;;;;;;5077477;28;20195;-53
2021/11/18 01:26:17;;;;;;;16.43;6.67;;;7.00;99.90;;;;;;5078198;28;20279;-53
2021/11/18 01:28:44;;;;;;;13.87;6.67;;;6.90;99.90;;;;;;5078541;28;20203;-52
2021/11/18 01:31:12;;;;;;;17.13;6.50;;;7.00;99.90;;;;;;5080353;28;20245;-53
2021/11/18 01:33:40;;;;;;;16.50;6.60;;;7.00;99.90;;;;;;5079947;28;20269;-52
2021/11/18 01:36:07;;;;;;;19.67;7.33;;;7.00;99.90;;;;;;5081236;28;20222;-52
2021/11/18 01:38:35;;;;;;;13.00;6.93;;;7.10;99.90;;;;;;5081067;28;20231;-52
2021/11/18 01:41:10;;;;;;;16.03;6.87;;;7.10;99.90;;;;;;5067435;28;20207;-52
2021/11/18 01:43:44;;;;;;;15.83;7.00;;;7.10;99.90;;;;;;5069969;28;20335;-55
2021/11/18 01:46:35;;;;;;;12.50;5.83;;;7.10;99.90;;;;;;5081578;28;20306;-53
2021/11/18 01:49:05;;;;;;;12.67;5.97;;;7.20;99.90;;;;;;5069540;28;20753;-55
2021/11/18 01:51:36;;;;;;;15.40;6.50;;;7.20;99.90;;;;;;5071049;28;20322;-53
2021/11/18 01:54:04;;;;;;;19.33;7.40;;;7.20;99.90;;;;;;5081203;28;20290;-54
2021/11/18 01:56:32;;;;;;;18.07;6.50;;;7.10;99.90;;;;;;5079408;28;20301;-54
2021/11/18 01:59:13;;;;;;;12.27;6.37;;;7.10;99.90;;;;;;5080751;28;20222;-53
2021/11/18 02:01:44;;;;;;;15.70;6.80;;;7.20;99.90;;;;;;5070379;28;20278;-52
2021/11/18 02:04:16;;;;;;;17.10;7.23;;;7.20;99.90;;;;;;5081947;28;20199;-53
2021/11/18 02:07:06;;;;;;;19.10;7.07;;;7.20;99.90;;;;;;5072669;28;23054;-53
2021/11/18 02:09:40;;;;;;;15.97;6.57;;;7.10;99.90;;;;;;5080209;28;20580;-54
2021/11/18 02:12:13;;;;;;;17.90;7.03;;;7.10;99.90;;;;;;5077495;28;20289;-55
2021/11/18 02:14:40;;;;;;;18.93;7.03;;;7.10;99.90;;;;;;5081360;28;20207;-53
2021/11/18 02:17:09;;;;;;;18.63;7.60;;;7.00;99.90;;;;;;5078678;28;20206;-55
2021/11/18 02:19:57;;;;;;;13.33;7.03;;;7.00;99.90;;;;;;5072659;28;20314;-54
2021/11/18 02:22:24;;;;;;;15.67;7.20;;;7.00;99.90;;;;;;5061069;28;20231;-53
2021/11/18 02:24:57;;;;;;;25.13;7.70;;;6.90;99.90;;;;;;5077072;28;20207;-52
2021/11/18 02:27:28;;;;;;;18.03;6.70;;;6.90;99.90;;;;;;5076847;28;20249;-53
2021/11/18 02:29:57;;;;;;;19.63;7.67;;;6.90;99.90;;;;;;5073490;28;20206;-53
2021/11/18 02:32:27;;;;;;;14.00;6.63;;;6.90;99.90;;;;;;5060968;28;20283;-53
2021/11/18 02:35:17;;;;;;;16.63;7.67;;;6.80;99.90;;;;;;5082552;28;20234;-52
2021/11/18 02:37:44;;;;;;;17.50;8.27;;;6.80;99.90;;;;;;5082505;28;20260;-53
2021/11/18 02:40:12;;;;;;;19.30;7.97;;;6.70;99.90;;;;;;5078691;28;20197;-55
2021/11/18 02:42:43;;;;;;;15.87;7.97;;;6.70;99.90;;;;;;5081060;28;20234;-54
2021/11/18 02:45:14;;;;;;;17.70;8.03;;;6.70;99.90;;;;;;5079592;28;20987;-53
2021/11/18 02:47:41;;;;;;;20.30;8.10;;;6.70;99.90;;;;;;5080263;28;20317;-52
2021/11/18 02:50:13;;;;;;;22.87;8.03;;;6.70;99.90;;;;;;5080432;28;20219;-55
2021/11/18 02:52:40;;;;;;;18.17;8.87;;;6.60;99.90;;;;;;5077745;28;20199;-53
2021/11/18 02:55:17;;;;;;;21.47;8.43;;;6.60;99.90;;;;;;5069638;28;20614;-52
2021/11/18 02:57:44;;;;;;;18.10;7.80;;;6.60;99.90;;;;;;5078677;28;20253;-53
2021/11/18 03:00:21;;;;;;;22.93;9.50;;;6.60;99.90;;;;;;5065507;28;20207;-52
2021/11/18 03:02:48;;;;;;;21.70;8.90;;;6.60;99.90;;;;;;5078017;28;20203;-53
2021/11/18 03:05:18;;;;;;;22.97;9.03;;;6.60;99.90;;;;;;5079102;28;20264;-52
2021/11/18 03:07:46;;;;;;;24.10;8.90;;;6.70;99.90;;;;;;5059708;28;20202;-53
2021/11/18 03:10:15;;;;;;;15.67;9.53;;;6.60;99.90;;;;;;5078644;28;20197;-52
2021/11/18 03:12:42;;;;;;;21.93;10.10;;;6.70;99.90;;;;;;5075774;28;20624;-51
2021/11/18 03:15:11;;;;;;;25.50;9.97;;;6.70;99.90;;;;;;5080932;28;20669;-52
2021/11/18 03:17:39;;;;;;;21.47;9.97;;;6.80;99.90;;;;;;5079037;28;20208;-51
2021/11/18 03:20:13;;;;;;;20.67;10.10;;;6.80;99.90;;;;;;5077047;28;20227;-52
2021/11/18 03:22:40;;;;;;;22.37;10.30;;;6.80;99.90;;;;;;5081071;28;20624;-50
2021/11/18 03:25:09;;;;;;;17.33;9.23;;;6.90;99.90;;;;;;5077449;28;20873;-52
2021/11/18 03:27:37;;;;;;;19.20;9.83;;;6.90;99.90;;;;;;5077889;28;20249;-51
2021/11/18 03:30:07;;;;;;;23.57;10.90;;;7.00;99.90;;;;;;5079540;28;20651;-51
2021/11/18 03:32:37;;;;;;;31.63;10.40;;;6.90;99.90;;;;;;5079366;28;20207;-51
2021/11/18 03:35:06;;;;;;;26.00;11.40;;;7.00;99.90;;;;;;5079017;28;20279;-53
2021/11/18 03:37:34;;;;;;;24.10;9.83;;;7.00;99.90;;;;;;5078440;28;20208;-53
2021/11/18 03:40:00;;;;;;;25.80;10.33;;;7.00;99.90;;;;;;5077799;28;20708;-53
2021/11/18 03:42:27;;;;;;;21.27;9.97;;;6.90;99.90;;;;;;5078681;28;20308;-52
2021/11/18 03:44:54;;;;;;;26.13;10.80;;;7.00;99.90;;;;;;5078573;28;20203;-53
2021/11/18 03:47:21;;;;;;;22.33;10.57;;;7.00;99.90;;;;;;5077509;28;20308;-53
2021/11/18 03:49:48;;;;;;;21.93;9.97;;;7.00;99.90;;;;;;5078011;28;20195;-51
2021/11/18 03:52:20;;;;;;;21.90;10.47;;;7.00;99.90;;;;;;5069307;28;20324;-54
2021/11/18 03:54:47;;;;;;;20.83;10.27;;;7.10;99.90;;;;;;5078311;28;20395;-52
2021/11/18 03:57:14;;;;;;;23.50;9.97;;;7.10;99.90;;;;;;5077269;28;20645;-51
2021/11/18 03:59:43;;;;;;;28.27;10.23;;;7.20;99.90;;;;;;5077070;28;20715;-51
2021/11/18 04:02:11;;;;;;;22.90;9.60;;;7.20;99.90;;;;;;5078109;28;20634;-51
2021/11/18 04:04:42;;;;;;;24.30;9.63;;;7.20;99.90;;;;;;5077129;28;20198;-52
2021/11/18 04:07:10;;;;;;;22.27;9.00;;;7.20;99.90;;;;;;5079198;28;20600;-52
2021/11/18 04:09:37;;;;;;;24.63;9.70;;;7.30;99.90;;;;;;5077730;28;20631;-52
2021/11/18 04:12:05;;;;;;;28.87;9.57;;;7.30;99.90;;;;;;5077703;28;20207;-52
2021/11/18 04:14:35;;;;;;;27.70;10.37;;;7.30;99.90;;;;;;5077638;28;20268;-52
2021/11/18 04:17:03;;;;;;;19.83;9.60;;;7.40;99.90;;;;;;5077893;28;20237;-52
2021/11/18 04:19:30;;;;;;;32.40;10.50;;;7.30;99.90;;;;;;5067321;28;20224;-51
2021/11/18 04:21:57;;;;;;;29.50;9.83;;;7.30;99.90;;;;;;5075196;28;20211;-51
2021/11/18 04:24:29;;;;;;;20.07;9.20;;;7.30;99.90;;;;;;5076825;28;20299;-53
2021/11/18 04:26:56;;;;;;;22.70;10.57;;;7.30;99.90;;;;;;5076581;28;20591;-52
2021/11/18 04:29:28;;;;;;;29.27;10.03;;;7.30;99.90;;;;;;5060835;28;20247;-52
2021/11/18 04:32:07;;;;;;;20.50;8.77;;;7.30;99.90;;;;;;5059351;28;20206;-53
2021/11/18 04:34:35;;;;;;;24.40;9.60;;;7.30;99.90;;;;;;5079110;28;20242;-53
2021/11/18 04:37:02;;;;;;;27.23;9.63;;;7.30;99.90;;;;;;5074696;28;20319;-52
2021/11/18 04:39:29;;;;;;;25.47;10.60;;;7.30;99.90;;;;;;5074656;28;20252;-51
2021/11/18 04:41:56;;;;;;;29.37;10.10;;;7.40;99.90;;;;;;5075457;28;20632;-53
2021/11/18 04:44:23;;;;;;;21.90;9.80;;;7.40;99.90;;;;;;5078824;28;20571;-53
2021/11/18 04:46:50;;;;;;;26.60;10.60;;;7.30;99.90;;;;;;5077052;28;22745;-52
2021/11/18 04:49:17;;;;;;;20.37;9.43;;;7.40;99.90;;;;;;5077890;28;20679;-52
2021/11/18 04:51:44;;;;;;;23.47;10.10;;;7.30;99.90;;;;;;5069391;28;20740;-52
2021/11/18 04:54:11;;;;;;;26.87;10.47;;;7.40;99.90;;;;;;5069478;28;20246;-51
2021/11/18 04:56:38;;;;;;;29.83;10.60;;;7.40;99.90;;;;;;5066192;28;20255;-54
2021/11/18 04:59:06;;;;;;;26.80;9.93;;;7.40;99.90;;;;;;5069807;28;20256;-52
2021/11/18 05:01:35;;;;;;;28.80;9.73;;;7.30;99.90;;;;;;5059275;28;20234;-51
2021/11/18 05:04:04;;;;;;;22.40;8.80;;;7.30;99.90;;;;;;5069628;28;20691;-53
2021/11/18 05:06:31;;;;;;;24.10;9.83;;;7.30;99.90;;;;;;5077512;28;20332;-51
2021/11/18 05:08:59;;;;;;;29.90;9.90;;;7.30;99.90;;;;;;5072607;28;20220;-53
2021/11/18 05:11:26;;;;;;;28.90;10.00;;;7.30;99.90;;;;;;5063028;28;20200;-52
2021/11/18 05:13:53;;;;;;;27.47;9.70;;;7.30;99.90;;;;;;5080844;28;20204;-52
2021/11/18 05:16:20;;;;;;;29.47;10.20;;;7.30;99.90;;;;;;5076747;28;20235;-51
2021/11/18 05:18:47;;;;;;;21.10;9.17;;;7.30;99.90;;;;;;5060600;28;20224;-52
2021/11/18 05:21:19;;;;;;;27.90;9.50;;;7.20;99.90;;;;;;5077341;28;20265;-51
2021/11/18 05:23:48;;;;;;;23.83;9.77;;;7.20;99.90;;;;;;5076724;28;20206;-50
2021/11/18 05:26:19;;;;;;;21.03;9.90;;;7.20;99.90;;;;;;5078133;28;20933;-53
2021/11/18 05:28:47;;;;;;;25.47;10.07;;;7.10;99.90;;;;;;5076990;28;20873;-51
2021/11/18 05:31:17;;;;;;;31.33;9.63;;;7.10;99.90;;;;;;5076407;28;20238;-51
2021/11/18 05:33:45;;;;;;;24.97;10.07;;;7.10;99.90;;;;;;5078394;28;20292;-53
2021/11/18 05:36:13;;;;;;;25.73;10.50;;;7.10;99.90;;;;;;5075931;28;20200;-51
2021/11/18 05:38:46;;;;;;;23.27;10.10;;;7.10;99.90;;;;;;5081510;28;20196;-52
2021/11/18 05:41:14;;;;;;;28.73;10.00;;;7.20;99.90;;;;;;5077029;28;20271;-51
2021/11/18 05:43:42;;;;;;;28.13;10.80;;;7.30;99.90;;;;;;5082680;28;20233;-51
2021/11/18 05:46:14;;;;;;;22.00;10.10;;;7.20;99.90;;;;;;5079041;28;20189;-50
2021/11/18 05:48:43;;;;;;;29.10;10.87;;;7.20;99.90;;;;;;5075133;28;20198;-52
2021/11/18 05:51:11;;;;;;;27.73;10.50;;;7.20;99.90;;;;;;5077352;28;20970;-51
2021/11/18 05:53:47;;;;;;;30.83;9.83;;;7.10;99.90;;;;;;5078225;28;20197;-50
2021/11/18 05:56:17;;;;;;;23.07;10.27;;;7.20;99.90;;;;;;5075189;28;20206;-52
2021/11/18 05:58:48;;;;;;;24.83;9.60;;;7.30;99.90;;;;;;5076021;28;20607;-53
2021/11/18 06:01:16;;;;;;;25.07;10.90;;;7.40;99.90;;;;;;5076450;28;20279;-52
2021/11/18 06:03:45;;;;;;;22.30;10.03;;;7.30;99.90;;;;;;5072173;28;20371;-50
2021/11/18 06:06:12;;;;;;;27.27;10.33;;;7.20;99.90;;;;;;5075140;28;20196;-51
2021/11/18 06:08:40;;;;;;;24.80;10.03;;;7.20;99.90;;;;;;5076286;28;20260;-51
2021/11/18 06:11:08;;;;;;;30.13;10.97;;;7.30;99.90;;;;;;5069293;28;20590;-53
2021/11/18 06:13:35;;;;;;;31.33;11.43;;;7.30;99.90;;;;;;5081855;28;20308;-53
2021/11/18 06:16:03;;;;;;;31.47;11.53;;;7.20;99.90;;;;;;5079022;28;20231;-52
2021/11/18 06:18:31;;;;;;;28.60;11.43;;;7.20;99.90;;;;;;5081144;28;20228;-51
2021/11/18 06:20:58;;;;;;;25.97;10.80;;;7.20;99.90;;;;;;5078772;28;20220;-52
2021/11/18 06:23:25;;;;;;;29.10;11.60;;;7.20;99.90;;;;;;5080080;28;20260;-51
2021/11/18 06:25:51;;;;;;;34.63;11.70;;;7.20;99.90;;;;;;5078873;28;20242;-52
2021/11/18 06:28:19;;;;;;;32.30;11.07;;;7.30;99.90;;;;;;5078679;28;20250;-51
2021/11/18 06:30:50;;;;;;;25.37;12.07;;;7.30;99.90;;;;;;5075605;28;20202;-51
2021/11/18 06:33:18;;;;;;;23.27;11.13;;;7.40;99.90;;;;;;5067864;28;20285;-50
2021/11/18 06:35:46;;;;;;;28.30;10.97;;;7.40;99.90;;;;;;5078267;28;20238;-51
2021/11/18 06:38:32;;;;;;;29.87;11.27;;;7.40;99.90;;;;;;5078507;28;20212;-50
2021/11/18 06:40:59;;;;;;;29.53;11.87;;;7.30;99.90;;;;;;5075387;28;20668;-51
2021/11/18 06:43:26;;;;;;;30.87;12.00;;;7.40;99.90;;;;;;5077890;28;20299;-50
2021/11/18 06:45:53;;;;;;;36.67;13.50;;;7.30;99.90;;;;;;5079729;28;20280;-51
2021/11/18 06:48:30;;;;;;;31.23;11.97;;;7.40;99.90;;;;;;5080858;28;20207;-53
2021/11/18 06:51:05;;;;;;;30.67;11.40;;;7.40;99.90;;;;;;5073550;28;21004;-50
2021/11/18 06:53:33;;;;;;;29.47;11.60;;;7.40;99.90;;;;;;5077815;28;20257;-53
2021/11/18 06:56:00;;;;;;;26.23;11.47;;;7.40;99.90;;;;;;5077173;28;20734;-51
2021/11/18 06:58:27;;;;;;;25.73;11.47;;;7.40;99.90;;;;;;5072851;28;20298;-50
2021/11/18 07:00:54;;;;;;;27.20;9.73;;;7.50;99.90;;;;;;5061329;28;20256;-52
2021/11/18 07:03:21;;;;;;;27.90;10.57;;;7.50;99.90;;;;;;5073169;28;20218;-51
2021/11/18 07:05:48;;;;;;;28.43;10.60;;;7.50;99.90;;;;;;5070160;28;20231;-50
2021/11/18 07:08:15;;;;;;;29.90;11.23;;;7.60;99.90;;;;;;5082508;28;20294;-51
2021/11/18 07:10:44;;;;;;;24.17;9.63;;;7.60;99.90;;;;;;5078056;28;20995;-53
2021/11/18 07:13:26;;;;;;;25.83;10.53;;;7.50;99.90;;;;;;5078099;28;20282;-50
2021/11/18 07:15:54;;;;;;;27.10;10.57;;;7.60;99.90;;;;;;5075827;28;20220;-51
2021/11/18 07:18:23;;;;;;;30.00;10.77;;;7.60;99.90;;;;;;5073168;28;20226;-51
2021/11/18 07:20:51;;;;;;;34.47;10.67;;;7.70;99.90;;;;;;5076761;28;20613;-51
2021/11/18 07:23:20;;;;;;;28.67;9.83;;;7.70;99.90;;;;;;5078846;28;20223;-52
2021/11/18 07:25:49;;;;;;;25.30;11.00;;;7.60;99.90;;;;;;5076505;28;20241;-52
2021/11/18 07:28:16;;;;;;;20.67;10.50;;;7.60;99.90;;;;;;5068908;28;20234;-51
2021/11/18 07:30:43;;;;;;;30.57;11.47;;;7.70;99.90;;;;;;5068867;28;20202;-51
2021/11/18 07:33:11;;;;;;;24.53;10.13;;;7.90;99.90;;;;;;5072495;28;20257;-52
2021/11/18 07:35:38;;;;;;;24.50;8.90;;;7.90;99.90;;;;;;5076594;28;20655;-50
2021/11/18 07:38:05;;;;;;;26.43;9.50;;;7.90;99.90;;;;;;5078176;28;20673;-51
2021/11/18 07:40:33;;;;;;;27.90;11.37;;;7.80;99.90;;;;;;5078012;28;20239;-51
2021/11/18 07:43:00;;;;;;;35.00;10.57;;;7.80;99.90;;;;;;5080809;28;20240;-50
2021/11/18 07:45:27;;;;;;;31.30;10.77;;;7.70;99.90;;;;;;5077821;28;20720;-52
2021/11/18 07:47:55;;;;;;;32.80;10.73;;;7.70;99.90;;;;;;5080145;28;20200;-51
2021/11/18 07:50:22;;;;;;;32.20;10.63;;;7.60;99.90;;;;;;5078324;28;20237;-50
2021/11/18 07:52:49;;;;;;;28.57;10.03;;;7.70;99.90;;;;;;5076110;28;20697;-51
2021/11/18 07:55:20;;;;;;;34.47;11.23;;;7.60;99.90;;;;;;5079245;28;20202;-50
2021/11/18 07:57:47;;;;;;;34.70;10.50;;;7.60;99.90;;;;;;5079141;28;20796;-52
2021/11/18 08:00:16;;;;;;;27.80;10.87;;;7.70;99.90;;;;;;5078070;28;20328;-52
2021/11/18 08:02:44;;;;;;;26.53;9.33;;;7.70;99.90;;;;;;5079204;28;20253;-50
2021/11/18 08:05:12;;;;;;;24.83;10.77;;;7.60;99.90;;;;;;5079487;28;20271;-52
2021/11/18 08:07:39;;;;;;;33.50;11.20;;;7.70;99.90;;;;;;5079005;28;20290;-51
2021/11/18 08:10:08;;;;;;;32.07;11.43;;;7.60;99.90;;;;;;5076151;28;20291;-51
2021/11/18 08:12:36;;;;;;;28.87;10.33;;;7.70;99.90;;;;;;5074099;28;20260;-51
2021/11/18 08:15:05;;;;;;;33.10;10.20;;;7.80;99.90;;;;;;5079074;28;20626;-53
2021/11/18 08:17:32;;;;;;;29.33;10.03;;;7.80;99.90;;;;;;5076611;28;20640;-52
2021/11/18 08:19:59;;;;;;;27.00;9.97;;;7.70;99.90;;;;;;5079799;28;20321;-52
2021/11/18 08:22:27;;;;;;;35.23;11.43;;;7.80;99.90;;;;;;5075416;28;20217;-52
2021/11/18 08:24:54;;;;;;;25.80;10.97;;;7.80;99.90;;;;;;5069553;28;20338;-50
2021/11/18 08:27:20;;;;;;;28.87;9.60;;;7.80;99.90;;;;;;5058459;28;20193;-53
2021/11/18 08:29:47;;;;;;;27.00;10.20;;;7.80;99.90;;;;;;5077902;28;20834;-52
2021/11/18 08:32:15;;;;;;;25.97;10.90;;;7.80;99.90;;;;;;5079270;28;20709;-51
2021/11/18 08:34:43;;;;;;;36.27;9.93;;;7.70;99.90;;;;;;5078166;28;20278;-51
2021/11/18 08:37:11;;;;;;;28.40;11.73;;;7.70;99.90;;;;;;5075770;28;20225;-50
2021/11/18 08:39:38;;;;;;;24.37;9.87;;;7.80;99.90;;;;;;5077953;28;20310;-50
2021/11/18 08:42:09;;;;;;;25.83;10.50;;;7.90;99.90;;;;;;5072440;28;20222;-53
2021/11/18 08:44:37;;;;;;;29.53;10.23;;;8.00;99.90;;;;;;5068371;28;20679;-52
2021/11/18 08:47:07;;;;;;;25.80;10.37;;;8.00;99.90;;;;;;5076446;28;20218;-51
2021/11/18 08:49:35;;;;;;;24.03;9.27;;;8.00;99.90;;;;;;5077287;28;20291;-50
2021/11/18 08:52:08;;;;;;;27.80;9.43;;;8.00;99.90;;;;;;5062079;28;20274;-52
2021/11/18 08:54:41;;;;;;;17.83;7.80;;;7.90;99.90;;;;;;5076119;28;20217;-51
2021/11/18 08:57:09;;;;;;;26.10;9.00;;;8.00;99.90;;;;;;5067341;28;20228;-52
2021/11/18 08:59:36;;;;;;;24.37;8.80;;;8.00;99.90;;;;;;5070522;28;20211;-51
2021/11/18 09:02:14;;;;;;;20.73;8.50;;;8.00;99.90;;;;;;5069660;28;20318;-51
2021/11/18 09:04:41;;;;;;;26.00;8.93;;;8.10;99.90;;;;;;5074880;28;20212;-53
2021/11/18 09:07:08;;;;;;;22.87;8.47;;;8.30;99.90;;;;;;5076329;28;20211;-51
2021/11/18 09:09:35;;;;;;;19.87;8.17;;;8.40;99.90;;;;;;5075436;28;20224;-52
2021/11/18 09:12:06;;;;;;;20.57;9.87;;;8.60;99.90;;;;;;5074195;28;20276;-51
2021/11/18 09:14:33;;;;;;;26.50;8.47;;;8.80;99.90;;;;;;5074304;28;20694;-51
2021/11/18 09:17:01;;;;;;;25.63;8.97;;;8.80;99.90;;;;;;5057347;28;20294;-50
2021/11/18 09:19:31;;;;;;;18.87;7.63;;;9.00;99.90;;;;;;5075107;28;20223;-52
2021/11/18 09:22:00;;;;;;;26.40;8.37;;;9.20;99.90;;;;;;5071870;28;20711;-51
2021/11/18 09:24:40;;;;;;;21.37;8.47;;;9.30;99.90;;;;;;5074084;28;20792;-50
2021/11/18 09:27:24;;;;;;;22.77;8.57;;;9.50;99.90;;;;;;5062048;28;20274;-51
2021/11/18 09:29:51;;;;;;;22.30;9.67;;;9.90;99.90;;;;;;5076594;28;20284;-51
2021/11/18 09:32:18;;;;;;;23.67;8.50;;;9.80;99.90;;;;;;5077073;28;20245;-50
2021/11/18 09:34:45;;;;;;;22.07;8.10;;;9.90;99.90;;;;;;5078276;28;20750;-51
2021/11/18 09:37:13;;;;;;;21.33;8.53;;;10.10;99.90;;;;;;5079572;28;20241;-51
2021/11/18 09:39:41;;;;;;;26.13;8.80;;;10.10;99.90;;;;;;5079134;28;20238;-50
2021/11/18 09:42:16;;;;;;;20.60;7.23;;;10.00;99.90;;;;;;5074171;28;20252;-51
2021/11/18 09:45:06;;;;;;;18.73;7.50;;;10.00;99.90;;;;;;5068784;28;20285;-51
2021/11/18 09:47:58;;;;;;;24.07;8.00;;;10.10;99.90;;;;;;5078051;28;20335;-52
2021/11/18 09:50:56;;;;;;;19.00;6.93;;;10.20;99.90;;;;;;5081014;28;20202;-50
2021/11/18 09:53:36;;;;;;;17.93;6.20;;;10.40;99.90;;;;;;5076306;28;20278;-51
2021/11/18 09:56:36;;;;;;;19.50;6.90;;;10.40;99.90;;;;;;5077610;28;20335;-51
2021/11/18 09:59:28;;;;;;;18.93;6.10;;;10.50;99.90;;;;;;5079658;28;20206;-50
2021/11/18 10:02:26;;;;;;;17.83;6.70;;;10.60;99.90;;;;;;5080380;28;20242;-52
2021/11/18 10:05:00;;;;;;;15.47;5.57;;;10.70;99.90;;;;;;5078704;28;20202;-51
2021/11/18 10:07:41;;;;;;;15.00;7.07;;;10.90;99.90;;;;;;5079784;28;21025;-50
2021/11/18 10:10:11;;;;;;;19.97;5.97;;;10.90;99.90;;;;;;5069647;28;20763;-51
2021/11/18 10:13:02;;;;;;;20.20;6.00;;;10.60;99.90;;;;;;5077740;28;20720;-49
2021/11/18 10:15:36;;;;;;;15.57;6.03;;;10.60;99.90;;;;;;5077234;28;20286;-52
2021/11/18 10:18:24;;;;;;;14.70;5.63;;;10.60;99.90;;;;;;5078719;28;20834;-50
2021/11/18 10:21:10;;;;;;;14.77;5.93;;;10.70;99.90;;;;;;5081252;28;20198;-52
2021/11/18 10:23:38;;;;;;;13.77;5.27;;;10.70;99.90;;;;;;5078408;28;20215;-57
2021/11/18 10:26:18;;;;;;;14.00;5.00;;;10.60;99.90;;;;;;5078191;28;20214;-56
2021/11/18 10:28:57;;;;;;;17.37;5.47;;;10.70;99.90;;;;;;5063534;28;20195;-56
2021/11/18 10:31:51;;;;;;;17.00;6.10;;;10.90;99.90;;;;;;5077907;28;20250;-56
2021/11/18 10:34:41;;;;;;;18.73;6.27;;;10.60;99.90;;;;;;5067019;28;20226;-56
2021/11/18 10:37:29;;;;;;;17.37;5.60;;;10.60;99.90;;;;;;5072581;28;20271;-56
2021/11/18 10:39:59;;;;;;;16.93;6.77;;;10.50;99.90;;;;;;5072713;28;20210;-57
2021/11/18 10:42:35;;;;;;;16.70;6.03;;;10.40;99.90;;;;;;5079240;28;20205;-57
2021/11/18 10:45:10;;;;;;;19.57;5.13;;;10.30;99.90;;;;;;5079908;28;20205;-58
2021/11/18 10:47:53;;;;;;;17.27;5.77;;;10.30;99.90;;;;;;5074710;28;20197;-56
2021/11/18 10:50:42;;;;;;;18.77;6.40;;;10.20;99.90;;;;;;5061463;28;20220;-58
2021/11/18 10:53:14;;;;;;;21.47;6.27;;;10.10;99.90;;;;;;5077570;28;20232;-51
2021/11/18 10:55:45;;;;;;;15.43;6.03;;;10.20;99.90;;;;;;5076892;28;20213;-50
2021/11/18 10:58:34;;;;;;;15.70;5.70;;;10.40;99.90;;;;;;5078506;28;20203;-50
2021/11/18 11:01:04;;;;;;;15.23;5.67;;;10.70;99.90;;;;;;5076485;28;20214;-49
2021/11/18 11:03:38;;;;;;;17.83;6.17;;;10.80;99.90;;;;;;5074140;28;20222;-51
2021/11/18 11:06:24;;;;;;;17.93;6.23;;;10.70;99.90;;;;;;5076495;28;20211;-50
2021/11/18 11:08:54;;;;;;;14.97;6.90;;;10.60;99.90;;;;;;5080247;28;20195;-49
2021/11/18 11:11:44;;;;;;;13.67;5.50;;;10.60;99.90;;;;;;5076685;28;20281;-50
2021/11/18 11:14:52;;;;;;;14.93;5.70;;;10.90;99.90;;;;;;5077026;28;20214;-51
2021/11/18 11:17:51;;;;;;;19.03;5.97;;;11.20;99.90;;;;;;5075939;28;20245;-49
2021/11/18 11:20:29;;;;;;;16.53;5.27;;;11.50;99.90;;;;;;5078476;28;20244;-50
2021/11/18 11:23:15;;;;;;;19.10;5.83;;;11.70;99.90;;;;;;5076509;28;20345;-53
2021/11/18 11:26:19;;;;;;;15.13;5.77;;;11.80;99.90;;;;;;5077428;28;20667;-51
2021/11/18 11:29:19;;;;;;;19.03;6.33;;;12.00;99.90;;;;;;5060721;28;20696;-50
2021/11/18 11:32:11;;;;;;;19.00;5.30;;;12.10;99.90;;;;;;5074693;28;20226;-50
2021/11/18 11:34:48;;;;;;;15.97;5.50;;;12.10;99.90;;;;;;5076822;28;20633;-49
2021/11/18 11:37:26;;;;;;;16.50;6.10;;;12.10;99.90;;;;;;5075423;28;20621;-49
2021/11/18 11:40:04;;;;;;;13.67;5.03;;;12.10;99.90;;;;;;5078463;28;20295;-50
2021/11/18 11:42:59;;;;;;;13.80;5.40;;;12.20;99.90;;;;;;5075773;28;20281;-49
2021/11/18 11:45:58;;;;;;;13.53;5.07;;;12.10;99.90;;;;;;5074056;28;20191;-53
2021/11/18 11:48:39;;;;;;;15.00;6.07;;;12.10;99.90;;;;;;5075722;28;20258;-50
2021/11/18 11:51:19;;;;;;;15.07;5.50;;;12.30;99.90;;;;;;5075747;28;20248;-50
2021/11/18 11:54:24;;;;;;;17.83;5.93;;;12.30;99.90;;;;;;5074934;28;20233;-49
2021/11/18 11:56:54;;;;;;;19.90;4.97;;;12.30;99.90;;;;;;5067849;28;20227;-49
2021/11/18 11:59:40;;;;;;;15.77;4.33;;;12.30;99.90;;;;;;5075216;28;20191;-50
2021/11/18 12:02:20;;;;;;;10.40;4.70;;;12.20;99.90;;;;;;5054640;28;21255;-50
2021/11/18 12:04:50;;;;;;;18.57;5.57;;;12.20;99.90;;;;;;5073094;28;20226;-49
2021/11/18 12:07:25;;;;;;;14.17;4.40;;;12.10;99.90;;;;;;5061207;28;20226;-49
2021/11/18 12:09:55;;;;;;;13.93;4.90;;;12.10;99.90;;;;;;5072630;28;20234;-49
2021/11/18 12:12:35;;;;;;;17.40;5.27;;;12.30;99.90;;;;;;5066441;28;20227;-51
2021/11/18 12:15:17;;;;;;;17.57;4.83;;;12.50;99.90;;;;;;5070340;28;20286;-49
2021/11/18 12:17:53;;;;;;;12.87;5.30;;;12.40;99.90;;;;;;5074898;28;20231;-50
2021/11/18 12:20:27;;;;;;;10.90;4.37;;;12.50;99.90;;;;;;5067096;28;20699;-50
2021/11/18 12:23:07;;;;;;;20.60;5.90;;;12.40;99.90;;;;;;5073923;28;20228;-49
2021/11/18 12:25:41;;;;;;;13.70;4.97;;;12.50;99.90;;;;;;5064803;28;20228;-50
2021/11/18 12:28:08;;;;;;;18.80;5.13;;;12.40;99.90;;;;;;5062927;28;20209;-51
2021/11/18 12:30:43;;;;;;;14.20;4.93;;;12.30;99.90;;;;;;5070110;28;20679;-51
2021/11/18 12:33:31;;;;;;;20.13;4.97;;;12.20;99.90;;;;;;5061187;28;20196;-51
2021/11/18 12:36:21;;;;;;;18.17;5.30;;;12.50;99.90;;;;;;5067482;28;20222;-49
2021/11/18 12:39:23;;;;;;;15.00;4.90;;;12.40;99.90;;;;;;5055422;28;20336;-50
2021/11/18 12:42:16;;;;;;;16.43;4.90;;;12.40;99.90;;;;;;5035183;28;20252;-50
2021/11/18 12:44:58;;;;;;;20.93;5.43;;;12.40;99.90;;;;;;5073910;28;20615;-51
2021/11/18 12:47:47;;;;;;;15.03;5.93;;;12.20;99.90;;;;;;5065269;28;20235;-50
2021/11/18 12:50:32;;;;;;;15.37;4.97;;;12.30;99.90;;;;;;5060313;28;20651;-51
2021/11/18 12:53:11;;;;;;;11.40;4.60;;;12.40;99.90;;;;;;5075122;28;20262;-51
2021/11/18 12:55:59;;;;;;;14.30;4.50;;;12.20;99.90;;;;;;5070251;28;20242;-51
2021/11/18 12:58:46;;;;;;;13.80;4.90;;;12.10;99.90;;;;;;5074703;28;20207;-51
2021/11/18 13:01:22;;;;;;;19.93;5.80;;;11.90;99.90;;;;;;5075161;28;20195;-50
2021/11/18 13:03:49;;;;;;;23.00;5.23;;;11.90;99.90;;;;;;5073108;28;20307;-52
2021/11/18 13:06:29;;;;;;;15.70;5.10;;;12.00;99.90;;;;;;5050933;28;20195;-51
2021/11/18 13:08:56;;;;;;;16.53;5.60;;;12.20;99.90;;;;;;5059347;28;20257;-52
2021/11/18 13:11:26;;;;;;;14.27;4.30;;;12.40;99.90;;;;;;5052059;28;20324;-49